Airport details for: LECO (Spain)

Metar

LECO 250930Z 00000KT 9999 FEW040 06/05 Q1015 NOSIG

General details

ICAO: LECO
IATA: LCG
Name (city): A Coruna
Major:
Country: Spain
vACC: vACC Spain
Description:

A Coruña Airport LECO

A Coruña Airport (IATA: LCG, ICAO: LECO), formerly known as Alvedro Airport, is the airport serving the Galician city of A Coruña in northwestern Spain. The airport is located in the municipality of Culleredo, approximately 7 kilometres (4.3 mi) from the city center. It is a part of the network of airports managed by Aena, a Spanish state-owned company responsible for airport management and air traffic control. In 2011, 1,012,800 passengers used the airport.

Scenery links:
FS9 scenery:
FSX/P3D scenery:
XP scenery:
Elevation: 327 ft.
Transition altitude: 6000 ft.
MSA: 6300 ft.
Latitude: 43.301945
Longitude: -8.377222
LECO Charts
LECO Notams
LECO Online stations

Runways

Number Course Length Elevation Lat Lon ILS ILS freq ILS FAC GP
03 35° 6358ft / 1938 m 327ft 43.294783 -8.383228 - - 3.0°
21 215° 6358ft / 1938 m 268ft 43.309745 -8.370947 109.9 215° 3.0°